sensor_id;sensor_type;location;lat;lon;timestamp;temperature;humidity
33741;DHT22;20065;48.380;10.892;2023-11-21T00:01:02;9.80;99.90
33741;DHT22;20065;48.380;10.892;2023-11-21T00:03:50;9.60;99.90
33741;DHT22;20065;48.380;10.892;2023-11-21T00:06:36;9.50;99.90
33741;DHT22;20065;48.380;10.892;2023-11-21T00:09:23;9.30;99.90
33741;DHT22;20065;48.380;10.892;2023-11-21T00:12:09;9.20;99.90
33741;DHT22;20065;48.380;10.892;2023-11-21T00:14:55;9.10;99.90
33741;DHT22;20065;48.380;10.892;2023-11-21T00:17:42;9.00;99.90
33741;DHT22;20065;48.380;10.892;2023-11-21T00:20:31;8.90;99.90
33741;DHT22;20065;48.380;10.892;2023-11-21T00:23:17;8.90;99.90
33741;DHT22;20065;48.380;10.892;2023-11-21T00:29:41;8.70;99.90
33741;DHT22;20065;48.380;10.892;2023-11-21T00:32:27;8.50;99.90
33741;DHT22;20065;48.380;10.892;2023-11-21T00:35:13;8.50;99.90
33741;DHT22;20065;48.380;10.892;2023-11-21T00:38:00;8.40;99.90
33741;DHT22;20065;48.380;10.892;2023-11-21T00:40:46;8.40;99.90
33741;DHT22;20065;48.380;10.892;2023-11-21T00:43:32;8.30;99.90
33741;DHT22;20065;48.380;10.892;2023-11-21T00:46:21;8.20;99.90
33741;DHT22;20065;48.380;10.892;2023-11-21T00:49:08;8.20;99.90
33741;DHT22;20065;48.380;10.892;2023-11-21T00:51:54;8.10;99.90
33741;DHT22;20065;48.380;10.892;2023-11-21T00:54:41;8.10;99.90
33741;DHT22;20065;48.380;10.892;2023-11-21T00:57:27;8.10;99.90
33741;DHT22;20065;48.380;10.892;2023-11-21T01:00:14;8.10;99.90
33741;DHT22;20065;48.380;10.892;2023-11-21T01:03:02;8.00;99.90
33741;DHT22;20065;48.380;10.892;2023-11-21T01:05:49;8.00;99.90
33741;DHT22;20065;48.380;10.892;2023-11-21T01:08:36;8.00;99.90
33741;DHT22;20065;48.380;10.892;2023-11-21T01:11:29;8.00;99.90
33741;DHT22;20065;48.380;10.892;2023-11-21T01:14:30;8.00;99.90
33741;DHT22;20065;48.380;10.892;2023-11-21T01:17:17;8.00;99.90
33741;DHT22;20065;48.380;10.892;2023-11-21T01:20:05;8.00;99.90
33741;DHT22;20065;48.380;10.892;2023-11-21T01:22:56;8.00;99.90
33741;DHT22;20065;48.380;10.892;2023-11-21T01:25:43;8.00;99.90
33741;DHT22;20065;48.380;10.892;2023-11-21T01:28:29;7.90;99.90
33741;DHT22;20065;48.380;10.892;2023-11-21T01:31:16;7.90;99.90
33741;DHT22;20065;48.380;10.892;2023-11-21T01:34:02;7.90;99.90
33741;DHT22;20065;48.380;10.892;2023-11-21T01:36:48;7.90;99.90
33741;DHT22;20065;48.380;10.892;2023-11-21T01:39:34;7.80;99.90
33741;DHT22;20065;48.380;10.892;2023-11-21T01:42:23;7.80;99.90
33741;DHT22;20065;48.380;10.892;2023-11-21T01:45:10;7.80;99.90
33741;DHT22;20065;48.380;10.892;2023-11-21T01:47:59;7.80;99.90
33741;DHT22;20065;48.380;10.892;2023-11-21T01:50:49;7.90;99.90
33741;DHT22;20065;48.380;10.892;2023-11-21T01:53:35;7.90;99.90
33741;DHT22;20065;48.380;10.892;2023-11-21T01:56:23;7.90;99.90
33741;DHT22;20065;48.380;10.892;2023-11-21T01:59:10;8.00;99.90
33741;DHT22;20065;48.380;10.892;2023-11-21T02:01:58;8.00;99.90
33741;DHT22;20065;48.380;10.892;2023-11-21T02:04:44;8.10;99.90
33741;DHT22;20065;48.380;10.892;2023-11-21T02:07:31;8.00;99.90
33741;DHT22;20065;48.380;10.892;2023-11-21T02:10:18;7.90;99.90
33741;DHT22;20065;48.380;10.892;2023-11-21T02:13:08;7.80;99.90
33741;DHT22;20065;48.380;10.892;2023-11-21T02:15:54;7.90;99.90
33741;DHT22;20065;48.380;10.892;2023-11-21T02:18:42;8.00;99.90
33741;DHT22;20065;48.380;10.892;2023-11-21T02:21:29;8.00;99.90
33741;DHT22;20065;48.380;10.892;2023-11-21T02:24:16;8.00;99.90
33741;DHT22;20065;48.380;10.892;2023-11-21T02:27:03;8.00;99.90
33741;DHT22;20065;48.380;10.892;2023-11-21T02:30:05;8.20;99.90
33741;DHT22;20065;48.380;10.892;2023-11-21T02:32:53;8.20;99.90
33741;DHT22;20065;48.380;10.892;2023-11-21T02:35:40;8.30;99.90
33741;DHT22;20065;48.380;10.892;2023-11-21T02:38:26;8.30;99.90
33741;DHT22;20065;48.380;10.892;2023-11-21T02:41:12;8.30;99.90
33741;DHT22;20065;48.380;10.892;2023-11-21T02:43:59;8.30;99.90
33741;DHT22;20065;48.380;10.892;2023-11-21T02:46:45;8.40;99.90
33741;DHT22;20065;48.380;10.892;2023-11-21T02:49:32;8.40;99.90
33741;DHT22;20065;48.380;10.892;2023-11-21T02:52:20;8.40;99.90
33741;DHT22;20065;48.380;10.892;2023-11-21T02:55:07;8.50;99.90
33741;DHT22;20065;48.380;10.892;2023-11-21T02:57:53;8.50;99.90
33741;DHT22;20065;48.380;10.892;2023-11-21T03:00:42;8.50;99.90
33741;DHT22;20065;48.380;10.892;2023-11-21T03:03:28;8.50;99.90
33741;DHT22;20065;48.380;10.892;2023-11-21T03:06:14;8.50;99.90
33741;DHT22;20065;48.380;10.892;2023-11-21T03:09:00;8.40;99.90
33741;DHT22;20065;48.380;10.892;2023-11-21T03:11:48;8.40;99.90
33741;DHT22;20065;48.380;10.892;2023-11-21T03:14:34;8.30;99.90
33741;DHT22;20065;48.380;10.892;2023-11-21T03:17:20;8.30;99.90
33741;DHT22;20065;48.380;10.892;2023-11-21T03:20:07;8.20;99.90
33741;DHT22;20065;48.380;10.892;2023-11-21T03:22:57;8.20;99.90
33741;DHT22;20065;48.380;10.892;2023-11-21T03:25:43;8.00;99.90
33741;DHT22;20065;48.380;10.892;2023-11-21T03:28:30;7.90;99.90
33741;DHT22;20065;48.380;10.892;2023-11-21T03:31:16;7.90;99.90
33741;DHT22;20065;48.380;10.892;2023-11-21T03:34:04;7.90;99.90
33741;DHT22;20065;48.380;10.892;2023-11-21T03:36:50;7.90;99.90
33741;DHT22;20065;48.380;10.892;2023-11-21T03:39:36;7.90;99.90
33741;DHT22;20065;48.380;10.892;2023-11-21T03:42:22;8.00;99.90
33741;DHT22;20065;48.380;10.892;2023-11-21T03:45:09;8.00;99.90
33741;DHT22;20065;48.380;10.892;2023-11-21T03:47:55;8.00;99.90
33741;DHT22;20065;48.380;10.892;2023-11-21T03:50:42;7.90;99.90
33741;DHT22;20065;48.380;10.892;2023-11-21T03:53:28;7.90;99.90
33741;DHT22;20065;48.380;10.892;2023-11-21T03:56:14;7.90;99.90
33741;DHT22;20065;48.380;10.892;2023-11-21T03:59:00;7.90;99.90
33741;DHT22;20065;48.380;10.892;2023-11-21T04:01:47;7.90;99.90
33741;DHT22;20065;48.380;10.892;2023-11-21T04:04:35;7.80;99.90
33741;DHT22;20065;48.380;10.892;2023-11-21T04:07:21;7.70;99.90
33741;DHT22;20065;48.380;10.892;2023-11-21T04:10:08;7.70;99.90
33741;DHT22;20065;48.380;10.892;2023-11-21T04:12:54;7.70;99.90
33741;DHT22;20065;48.380;10.892;2023-11-21T04:15:40;7.70;99.90
33741;DHT22;20065;48.380;10.892;2023-11-21T04:18:28;7.70;99.90
33741;DHT22;20065;48.380;10.892;2023-11-21T04:21:14;7.70;99.90
33741;DHT22;20065;48.380;10.892;2023-11-21T04:24:00;7.70;99.90
33741;DHT22;20065;48.380;10.892;2023-11-21T04:26:47;7.70;99.90
33741;DHT22;20065;48.380;10.892;2023-11-21T04:29:33;7.70;99.90
33741;DHT22;20065;48.380;10.892;2023-11-21T04:32:19;7.70;99.90
33741;DHT22;20065;48.380;10.892;2023-11-21T04:35:06;7.70;99.90
33741;DHT22;20065;48.380;10.892;2023-11-21T04:37:52;7.70;99.90
33741;DHT22;20065;48.380;10.892;2023-11-21T04:40:38;7.70;99.90
33741;DHT22;20065;48.380;10.892;2023-11-21T04:43:24;7.70;99.90
33741;DHT22;20065;48.380;10.892;2023-11-21T04:46:11;7.70;99.90
33741;DHT22;20065;48.380;10.892;2023-11-21T04:48:57;7.80;99.90
33741;DHT22;20065;48.380;10.892;2023-11-21T04:51:43;7.80;99.90
33741;DHT22;20065;48.380;10.892;2023-11-21T04:54:30;7.90;99.90
33741;DHT22;20065;48.380;10.892;2023-11-21T04:57:17;7.90;99.90
33741;DHT22;20065;48.380;10.892;2023-11-21T05:00:05;8.00;99.90
33741;DHT22;20065;48.380;10.892;2023-11-21T05:02:52;8.00;99.90
33741;DHT22;20065;48.380;10.892;2023-11-21T05:05:38;8.10;99.90
33741;DHT22;20065;48.380;10.892;2023-11-21T05:08:24;8.00;99.90
33741;DHT22;20065;48.380;10.892;2023-11-21T05:11:11;8.10;99.90
33741;DHT22;20065;48.380;10.892;2023-11-21T05:13:57;8.00;99.90
33741;DHT22;20065;48.380;10.892;2023-11-21T05:16:45;8.10;99.90
33741;DHT22;20065;48.380;10.892;2023-11-21T05:19:31;8.00;99.90
33741;DHT22;20065;48.380;10.892;2023-11-21T05:22:18;7.90;99.90
33741;DHT22;20065;48.380;10.892;2023-11-21T05:25:06;7.90;99.90
33741;DHT22;20065;48.380;10.892;2023-11-21T05:27:57;7.90;99.90
33741;DHT22;20065;48.380;10.892;2023-11-21T05:30:47;7.90;99.90
33741;DHT22;20065;48.380;10.892;2023-11-21T05:33:33;7.90;99.90
33741;DHT22;20065;48.380;10.892;2023-11-21T05:36:19;7.90;99.90
33741;DHT22;20065;48.380;10.892;2023-11-21T05:39:05;8.00;99.90
33741;DHT22;20065;48.380;10.892;2023-11-21T05:41:52;8.10;99.90
33741;DHT22;20065;48.380;10.892;2023-11-21T05:44:41;8.20;99.90
33741;DHT22;20065;48.380;10.892;2023-11-21T05:47:29;8.20;99.90
33741;DHT22;20065;48.380;10.892;2023-11-21T05:50:16;8.30;99.90
33741;DHT22;20065;48.380;10.892;2023-11-21T05:53:03;8.20;99.90
33741;DHT22;20065;48.380;10.892;2023-11-21T05:55:52;8.20;99.90
33741;DHT22;20065;48.380;10.892;2023-11-21T05:58:51;8.10;99.90
33741;DHT22;20065;48.380;10.892;2023-11-21T06:01:38;8.10;99.90
33741;DHT22;20065;48.380;10.892;2023-11-21T06:04:48;7.90;99.90
33741;DHT22;20065;48.380;10.892;2023-11-21T06:07:34;7.80;99.90
33741;DHT22;20065;48.380;10.892;2023-11-21T06:10:24;7.70;99.90
33741;DHT22;20065;48.380;10.892;2023-11-21T06:13:11;7.70;99.90
33741;DHT22;20065;48.380;10.892;2023-11-21T06:15:57;7.60;99.90
33741;DHT22;20065;48.380;10.892;2023-11-21T06:18:46;7.50;99.90
33741;DHT22;20065;48.380;10.892;2023-11-21T06:21:32;7.50;99.90
33741;DHT22;20065;48.380;10.892;2023-11-21T06:24:23;7.60;99.90
33741;DHT22;20065;48.380;10.892;2023-11-21T06:27:23;7.50;99.90
33741;DHT22;20065;48.380;10.892;2023-11-21T06:30:31;7.30;99.90
33741;DHT22;20065;48.380;10.892;2023-11-21T06:33:20;7.40;99.90
33741;DHT22;20065;48.380;10.892;2023-11-21T06:36:24;7.30;99.90
33741;DHT22;20065;48.380;10.892;2023-11-21T06:39:10;7.30;99.90
33741;DHT22;20065;48.380;10.892;2023-11-21T06:41:57;7.40;99.90
33741;DHT22;20065;48.380;10.892;2023-11-21T06:44:46;7.40;99.90
33741;DHT22;20065;48.380;10.892;2023-11-21T06:47:33;7.40;99.90
33741;DHT22;20065;48.380;10.892;2023-11-21T06:50:19;7.50;99.90
33741;DHT22;20065;48.380;10.892;2023-11-21T06:53:07;7.50;99.90
33741;DHT22;20065;48.380;10.892;2023-11-21T06:55:54;7.50;99.90
33741;DHT22;20065;48.380;10.892;2023-11-21T06:58:40;7.50;99.90
33741;DHT22;20065;48.380;10.892;2023-11-21T07:01:26;7.60;99.90
33741;DHT22;20065;48.380;10.892;2023-11-21T07:04:12;7.60;99.90
33741;DHT22;20065;48.380;10.892;2023-11-21T07:06:59;7.60;99.90
33741;DHT22;20065;48.380;10.892;2023-11-21T07:09:45;7.60;99.90
33741;DHT22;20065;48.380;10.892;2023-11-21T07:12:32;7.70;99.90
33741;DHT22;20065;48.380;10.892;2023-11-21T07:15:18;7.70;99.90
33741;DHT22;20065;48.380;10.892;2023-11-21T07:18:05;7.70;99.90
33741;DHT22;20065;48.380;10.892;2023-11-21T07:20:53;7.70;99.90
33741;DHT22;20065;48.380;10.892;2023-11-21T07:23:40;7.70;99.90
33741;DHT22;20065;48.380;10.892;2023-11-21T07:26:30;7.70;99.90
33741;DHT22;20065;48.380;10.892;2023-11-21T07:29:16;7.70;99.90
33741;DHT22;20065;48.380;10.892;2023-11-21T07:32:03;7.70;99.90
33741;DHT22;20065;48.380;10.892;2023-11-21T07:34:49;7.70;99.90
33741;DHT22;20065;48.380;10.892;2023-11-21T07:37:35;7.70;99.90
33741;DHT22;20065;48.380;10.892;2023-11-21T07:40:22;7.70;99.90
33741;DHT22;20065;48.380;10.892;2023-11-21T07:43:08;7.70;99.90
33741;DHT22;20065;48.380;10.892;2023-11-21T07:45:55;7.80;99.90
33741;DHT22;20065;48.380;10.892;2023-11-21T07:48:42;7.70;99.90
33741;DHT22;20065;48.380;10.892;2023-11-21T07:51:28;7.70;99.90
33741;DHT22;20065;48.380;10.892;2023-11-21T07:54:14;7.60;99.90
33741;DHT22;20065;48.380;10.892;2023-11-21T07:57:02;7.70;99.90
33741;DHT22;20065;48.380;10.892;2023-11-21T07:59:50;7.70;99.90
33741;DHT22;20065;48.380;10.892;2023-11-21T08:02:36;7.70;99.90
33741;DHT22;20065;48.380;10.892;2023-11-21T08:05:22;7.80;99.90
33741;DHT22;20065;48.380;10.892;2023-11-21T08:08:08;7.80;99.90
33741;DHT22;20065;48.380;10.892;2023-11-21T08:10:55;7.80;99.90
33741;DHT22;20065;48.380;10.892;2023-11-21T08:13:44;7.80;99.90
33741;DHT22;20065;48.380;10.892;2023-11-21T08:16:30;7.90;99.90
33741;DHT22;20065;48.380;10.892;2023-11-21T08:19:16;7.90;99.90
33741;DHT22;20065;48.380;10.892;2023-11-21T08:22:04;7.90;99.90
33741;DHT22;20065;48.380;10.892;2023-11-21T08:24:50;7.90;99.90
33741;DHT22;20065;48.380;10.892;2023-11-21T08:27:36;8.00;99.90
33741;DHT22;20065;48.380;10.892;2023-11-21T08:30:23;8.10;99.90
33741;DHT22;20065;48.380;10.892;2023-11-21T08:33:10;8.10;99.90
33741;DHT22;20065;48.380;10.892;2023-11-21T08:35:59;8.00;99.90
33741;DHT22;20065;48.380;10.892;2023-11-21T08:38:47;7.90;99.90
33741;DHT22;20065;48.380;10.892;2023-11-21T08:41:34;8.00;99.90
33741;DHT22;20065;48.380;10.892;2023-11-21T08:44:22;8.00;99.90
33741;DHT22;20065;48.380;10.892;2023-11-21T08:47:09;8.10;99.90
33741;DHT22;20065;48.380;10.892;2023-11-21T08:49:58;8.30;99.90
33741;DHT22;20065;48.380;10.892;2023-11-21T08:52:50;8.20;99.90
33741;DHT22;20065;48.380;10.892;2023-11-21T08:55:37;8.10;99.90
33741;DHT22;20065;48.380;10.892;2023-11-21T08:58:23;8.10;99.90
33741;DHT22;20065;48.380;10.892;2023-11-21T09:01:09;8.00;99.90
33741;DHT22;20065;48.380;10.892;2023-11-21T09:03:56;8.10;99.90
33741;DHT22;20065;48.380;10.892;2023-11-21T09:06:42;8.10;99.90
33741;DHT22;20065;48.380;10.892;2023-11-21T09:09:28;8.00;99.90
33741;DHT22;20065;48.380;10.892;2023-11-21T09:12:15;8.00;99.90
33741;DHT22;20065;48.380;10.892;2023-11-21T09:15:06;8.00;99.90
33741;DHT22;20065;48.380;10.892;2023-11-21T09:17:53;8.00;99.90
33741;DHT22;20065;48.380;10.892;2023-11-21T09:20:39;8.10;99.90
33741;DHT22;20065;48.380;10.892;2023-11-21T09:23:25;8.00;99.90
33741;DHT22;20065;48.380;10.892;2023-11-21T09:26:12;8.00;99.90
33741;DHT22;20065;48.380;10.892;2023-11-21T09:28:58;8.20;99.90
33741;DHT22;20065;48.380;10.892;2023-11-21T09:31:44;8.20;99.90
33741;DHT22;20065;48.380;10.892;2023-11-21T09:34:31;8.50;99.90
33741;DHT22;20065;48.380;10.892;2023-11-21T09:37:18;8.60;99.90
33741;DHT22;20065;48.380;10.892;2023-11-21T09:40:06;8.90;99.90
33741;DHT22;20065;48.380;10.892;2023-11-21T09:42:59;8.80;99.90
33741;DHT22;20065;48.380;10.892;2023-11-21T09:45:47;8.70;99.90
33741;DHT22;20065;48.380;10.892;2023-11-21T09:48:35;8.60;99.90
33741;DHT22;20065;48.380;10.892;2023-11-21T09:51:24;8.70;99.90
33741;DHT22;20065;48.380;10.892;2023-11-21T09:54:16;8.80;99.90
33741;DHT22;20065;48.380;10.892;2023-11-21T09:57:05;9.00;99.90
33741;DHT22;20065;48.380;10.892;2023-11-21T09:59:53;9.40;99.90
33741;DHT22;20065;48.380;10.892;2023-11-21T10:02:44;9.70;99.90
33741;DHT22;20065;48.380;10.892;2023-11-21T10:05:32;9.50;99.90
33741;DHT22;20065;48.380;10.892;2023-11-21T10:08:22;9.40;99.90
33741;DHT22;20065;48.380;10.892;2023-11-21T10:11:11;9.50;99.90
33741;DHT22;20065;48.380;10.892;2023-11-21T10:13:59;9.70;99.90
33741;DHT22;20065;48.380;10.892;2023-11-21T10:16:46;9.60;99.90
33741;DHT22;20065;48.380;10.892;2023-11-21T10:19:33;9.60;99.90
33741;DHT22;20065;48.380;10.892;2023-11-21T10:22:22;9.60;99.90
33741;DHT22;20065;48.380;10.892;2023-11-21T10:25:09;9.60;99.90
33741;DHT22;20065;48.380;10.892;2023-11-21T10:28:01;9.50;99.90
33741;DHT22;20065;48.380;10.892;2023-11-21T10:30:50;9.30;99.90
33741;DHT22;20065;48.380;10.892;2023-11-21T10:33:37;9.30;99.90
33741;DHT22;20065;48.380;10.892;2023-11-21T10:36:27;9.50;99.90
33741;DHT22;20065;48.380;10.892;2023-11-21T10:39:20;9.60;99.90
33741;DHT22;20065;48.380;10.892;2023-11-21T10:42:09;9.60;99.90
33741;DHT22;20065;48.380;10.892;2023-11-21T10:44:59;9.60;99.90
33741;DHT22;20065;48.380;10.892;2023-11-21T10:47:46;9.70;99.90
33741;DHT22;20065;48.380;10.892;2023-11-21T10:50:34;9.60;99.90
33741;DHT22;20065;48.380;10.892;2023-11-21T10:53:21;9.40;99.90
33741;DHT22;20065;48.380;10.892;2023-11-21T10:56:08;9.50;99.90
33741;DHT22;20065;48.380;10.892;2023-11-21T10:58:57;9.60;99.90
33741;DHT22;20065;48.380;10.892;2023-11-21T11:01:47;9.60;99.90
33741;DHT22;20065;48.380;10.892;2023-11-21T11:04:36;9.50;99.90
33741;DHT22;20065;48.380;10.892;2023-11-21T11:07:26;9.50;99.90
33741;DHT22;20065;48.380;10.892;2023-11-21T11:10:13;9.60;99.90
33741;DHT22;20065;48.380;10.892;2023-11-21T11:13:00;9.90;99.90
33741;DHT22;20065;48.380;10.892;2023-11-21T11:15:50;9.90;99.90
33741;DHT22;20065;48.380;10.892;2023-11-21T11:18:37;9.90;99.90
33741;DHT22;20065;48.380;10.892;2023-11-21T11:28:08;9.70;99.90
33741;DHT22;20065;48.380;10.892;2023-11-21T11:34:30;9.50;99.90
33741;DHT22;20065;48.380;10.892;2023-11-21T11:37:19;9.60;99.90
33741;DHT22;20065;48.380;10.892;2023-11-21T11:40:07;9.60;99.90
33741;DHT22;20065;48.380;10.892;2023-11-21T11:42:57;9.50;99.90
33741;DHT22;20065;48.380;10.892;2023-11-21T11:45:45;9.60;99.90
33741;DHT22;20065;48.380;10.892;2023-11-21T11:48:40;9.60;99.90
33741;DHT22;20065;48.380;10.892;2023-11-21T11:51:27;9.60;99.90
33741;DHT22;20065;48.380;10.892;2023-11-21T11:54:13;9.60;99.90
33741;DHT22;20065;48.380;10.892;2023-11-21T11:56:59;9.60;99.90
33741;DHT22;20065;48.380;10.892;2023-11-21T12:03:07;9.70;99.90
33741;DHT22;20065;48.380;10.892;2023-11-21T12:05:54;9.60;99.90
33741;DHT22;20065;48.380;10.892;2023-11-21T12:08:44;9.70;99.90
33741;DHT22;20065;48.380;10.892;2023-11-21T12:11:32;9.70;99.90
33741;DHT22;20065;48.380;10.892;2023-11-21T12:14:18;9.80;99.90
33741;DHT22;20065;48.380;10.892;2023-11-21T12:17:04;9.80;99.90
33741;DHT22;20065;48.380;10.892;2023-11-21T12:19:51;9.70;99.90
33741;DHT22;20065;48.380;10.892;2023-11-21T12:22:38;9.70;99.90
33741;DHT22;20065;48.380;10.892;2023-11-21T12:25:29;9.70;99.90
33741;DHT22;20065;48.380;10.892;2023-11-21T12:28:17;9.80;99.90
33741;DHT22;20065;48.380;10.892;2023-11-21T12:31:04;9.80;99.90
33741;DHT22;20065;48.380;10.892;2023-11-21T12:33:52;9.70;99.90
33741;DHT22;20065;48.380;10.892;2023-11-21T12:36:39;9.70;99.90
33741;DHT22;20065;48.380;10.892;2023-11-21T12:39:25;9.70;99.90
33741;DHT22;20065;48.380;10.892;2023-11-21T12:42:12;9.70;99.90
33741;DHT22;20065;48.380;10.892;2023-11-21T12:45:19;9.80;99.90
33741;DHT22;20065;48.380;10.892;2023-11-21T12:48:06;9.80;99.90
33741;DHT22;20065;48.380;10.892;2023-11-21T12:50:57;9.80;99.90
33741;DHT22;20065;48.380;10.892;2023-11-21T12:53:46;9.90;99.90
33741;DHT22;20065;48.380;10.892;2023-11-21T12:56:33;10.10;99.90
33741;DHT22;20065;48.380;10.892;2023-11-21T12:59:20;10.30;99.90
33741;DHT22;20065;48.380;10.892;2023-11-21T13:02:06;10.40;99.90
33741;DHT22;20065;48.380;10.892;2023-11-21T13:04:54;10.30;99.90
33741;DHT22;20065;48.380;10.892;2023-11-21T13:07:44;10.30;99.90
33741;DHT22;20065;48.380;10.892;2023-11-21T13:10:35;10.20;99.90
33741;DHT22;20065;48.380;10.892;2023-11-21T13:13:25;10.00;99.90
33741;DHT22;20065;48.380;10.892;2023-11-21T13:16:13;10.00;99.90
33741;DHT22;20065;48.380;10.892;2023-11-21T13:19:01;9.90;99.90
33741;DHT22;20065;48.380;10.892;2023-11-21T13:21:49;9.70;99.90
33741;DHT22;20065;48.380;10.892;2023-11-21T13:24:35;9.60;99.90
33741;DHT22;20065;48.380;10.892;2023-11-21T13:27:21;9.60;99.90
33741;DHT22;20065;48.380;10.892;2023-11-21T13:30:08;9.60;99.90
33741;DHT22;20065;48.380;10.892;2023-11-21T13:32:54;9.70;99.90
33741;DHT22;20065;48.380;10.892;2023-11-21T13:35:44;9.60;99.90
33741;DHT22;20065;48.380;10.892;2023-11-21T13:38:34;9.80;99.90
33741;DHT22;20065;48.380;10.892;2023-11-21T13:41:21;10.10;99.90
33741;DHT22;20065;48.380;10.892;2023-11-21T13:44:16;10.30;99.90
33741;DHT22;20065;48.380;10.892;2023-11-21T13:47:12;10.50;99.90
33741;DHT22;20065;48.380;10.892;2023-11-21T13:49:59;10.60;99.90
33741;DHT22;20065;48.380;10.892;2023-11-21T13:52:49;10.70;99.90
33741;DHT22;20065;48.380;10.892;2023-11-21T13:55:38;10.60;99.90
33741;DHT22;20065;48.380;10.892;2023-11-21T13:58:25;10.70;99.90
33741;DHT22;20065;48.380;10.892;2023-11-21T14:01:29;10.50;99.90
33741;DHT22;20065;48.380;10.892;2023-11-21T14:04:15;10.30;99.90
33741;DHT22;20065;48.380;10.892;2023-11-21T14:07:02;10.20;99.90
33741;DHT22;20065;48.380;10.892;2023-11-21T14:10:06;10.20;99.90
33741;DHT22;20065;48.380;10.892;2023-11-21T14:13:00;10.40;99.90
33741;DHT22;20065;48.380;10.892;2023-11-21T14:15:46;10.50;99.90
33741;DHT22;20065;48.380;10.892;2023-11-21T14:18:36;10.50;99.90
33741;DHT22;20065;48.380;10.892;2023-11-21T14:21:24;10.60;99.90
33741;DHT22;20065;48.380;10.892;2023-11-21T14:24:14;10.60;99.90
33741;DHT22;20065;48.380;10.892;2023-11-21T14:27:03;10.50;99.90
33741;DHT22;20065;48.380;10.892;2023-11-21T14:29:49;10.50;99.90
33741;DHT22;20065;48.380;10.892;2023-11-21T14:32:36;10.50;99.90
33741;DHT22;20065;48.380;10.892;2023-11-21T14:35:24;10.50;99.90
33741;DHT22;20065;48.380;10.892;2023-11-21T14:38:11;10.50;99.90
33741;DHT22;20065;48.380;10.892;2023-11-21T14:40:59;10.50;99.90
33741;DHT22;20065;48.380;10.892;2023-11-21T14:43:46;10.50;99.90
33741;DHT22;20065;48.380;10.892;2023-11-21T14:50:49;10.50;99.90
33741;DHT22;20065;48.380;10.892;2023-11-21T14:53:36;10.40;99.90
33741;DHT22;20065;48.380;10.892;2023-11-21T14:56:40;10.40;99.90
33741;DHT22;20065;48.380;10.892;2023-11-21T14:59:28;10.00;99.90
33741;DHT22;20065;48.380;10.892;2023-11-21T15:02:14;10.00;99.90
33741;DHT22;20065;48.380;10.892;2023-11-21T15:05:01;10.10;99.90
33741;DHT22;20065;48.380;10.892;2023-11-21T15:07:48;10.20;99.90
33741;DHT22;20065;48.380;10.892;2023-11-21T15:10:39;10.30;99.90
33741;DHT22;20065;48.380;10.892;2023-11-21T15:13:54;10.20;99.90
33741;DHT22;20065;48.380;10.892;2023-11-21T15:16:48;10.30;99.90
33741;DHT22;20065;48.380;10.892;2023-11-21T15:19:39;10.00;99.90
33741;DHT22;20065;48.380;10.892;2023-11-21T15:22:25;9.90;99.90
33741;DHT22;20065;48.380;10.892;2023-11-21T15:25:19;9.90;99.90
33741;DHT22;20065;48.380;10.892;2023-11-21T15:28:06;10.10;99.90
33741;DHT22;20065;48.380;10.892;2023-11-21T15:30:52;10.20;99.90
33741;DHT22;20065;48.380;10.892;2023-11-21T15:33:42;10.20;99.90
33741;DHT22;20065;48.380;10.892;2023-11-21T15:36:28;10.20;99.90
33741;DHT22;20065;48.380;10.892;2023-11-21T15:39:15;10.10;99.90
33741;DHT22;20065;48.380;10.892;2023-11-21T15:42:01;9.90;99.90
33741;DHT22;20065;48.380;10.892;2023-11-21T15:44:50;10.00;99.90
33741;DHT22;20065;48.380;10.892;2023-11-21T15:47:37;10.00;99.90
33741;DHT22;20065;48.380;10.892;2023-11-21T15:50:24;9.90;99.90
33741;DHT22;20065;48.380;10.892;2023-11-21T15:53:11;9.80;99.90
33741;DHT22;20065;48.380;10.892;2023-11-21T15:55:58;9.80;99.90
33741;DHT22;20065;48.380;10.892;2023-11-21T15:58:44;9.90;99.90
33741;DHT22;20065;48.380;10.892;2023-11-21T16:01:32;9.80;99.90
33741;DHT22;20065;48.380;10.892;2023-11-21T16:04:20;9.80;99.90
33741;DHT22;20065;48.380;10.892;2023-11-21T16:07:11;9.80;99.90
33741;DHT22;20065;48.380;10.892;2023-11-21T16:09:58;10.00;99.90
33741;DHT22;20065;48.380;10.892;2023-11-21T16:12:44;10.00;99.90
33741;DHT22;20065;48.380;10.892;2023-11-21T16:15:32;9.90;99.90
33741;DHT22;20065;48.380;10.892;2023-11-21T16:18:19;10.00;99.90
33741;DHT22;20065;48.380;10.892;2023-11-21T16:21:06;10.00;99.90
33741;DHT22;20065;48.380;10.892;2023-11-21T16:23:54;10.00;99.90
33741;DHT22;20065;48.380;10.892;2023-11-21T16:26:45;10.00;99.90
33741;DHT22;20065;48.380;10.892;2023-11-21T16:29:31;10.00;99.90
33741;DHT22;20065;48.380;10.892;2023-11-21T16:32:19;9.90;99.90
33741;DHT22;20065;48.380;10.892;2023-11-21T16:35:06;10.00;99.90
33741;DHT22;20065;48.380;10.892;2023-11-21T16:37:52;10.00;99.90
33741;DHT22;20065;48.380;10.892;2023-11-21T16:40:39;9.80;99.90
33741;DHT22;20065;48.380;10.892;2023-11-21T16:43:26;9.80;99.90
33741;DHT22;20065;48.380;10.892;2023-11-21T16:46:12;9.80;99.90
33741;DHT22;20065;48.380;10.892;2023-11-21T16:48:58;9.80;99.90
33741;DHT22;20065;48.380;10.892;2023-11-21T16:51:48;9.80;99.90
33741;DHT22;20065;48.380;10.892;2023-11-21T16:54:34;9.90;99.90
33741;DHT22;20065;48.380;10.892;2023-11-21T16:57:21;10.00;99.90
33741;DHT22;20065;48.380;10.892;2023-11-21T17:00:07;10.10;99.90
33741;DHT22;20065;48.380;10.892;2023-11-21T17:02:57;10.10;99.90
33741;DHT22;20065;48.380;10.892;2023-11-21T17:05:43;10.00;99.90
33741;DHT22;20065;48.380;10.892;2023-11-21T17:08:30;9.90;99.90
33741;DHT22;20065;48.380;10.892;2023-11-21T17:11:16;9.90;99.90
33741;DHT22;20065;48.380;10.892;2023-11-21T17:14:04;9.90;99.90
33741;DHT22;20065;48.380;10.892;2023-11-21T17:16:54;10.00;99.90
33741;DHT22;20065;48.380;10.892;2023-11-21T17:23:48;10.20;99.90
33741;DHT22;20065;48.380;10.892;2023-11-21T17:26:34;10.10;99.90
33741;DHT22;20065;48.380;10.892;2023-11-21T17:29:21;10.00;99.90
33741;DHT22;20065;48.380;10.892;2023-11-21T17:32:07;9.90;99.90
33741;DHT22;20065;48.380;10.892;2023-11-21T17:34:54;9.90;99.90
33741;DHT22;20065;48.380;10.892;2023-11-21T17:37:40;10.00;99.90
33741;DHT22;20065;48.380;10.892;2023-11-21T17:40:27;10.00;99.90
33741;DHT22;20065;48.380;10.892;2023-11-21T17:43:14;9.90;99.90
33741;DHT22;20065;48.380;10.892;2023-11-21T17:46:00;10.00;99.90
33741;DHT22;20065;48.380;10.892;2023-11-21T17:48:50;9.90;99.90
33741;DHT22;20065;48.380;10.892;2023-11-21T17:51:39;9.90;99.90
33741;DHT22;20065;48.380;10.892;2023-11-21T17:54:25;9.90;99.90
33741;DHT22;20065;48.380;10.892;2023-11-21T17:57:12;10.00;99.90
33741;DHT22;20065;48.380;10.892;2023-11-21T18:00:04;10.00;99.90
33741;DHT22;20065;48.380;10.892;2023-11-21T18:02:55;10.00;99.90